sensor_id;sensor_type;location;lat;lon;timestamp;temperature;humidity
31639;DHT22;18248;51.522;7.020;2022-11-24T00:01:09;9.20;99.90
31639;DHT22;18248;51.522;7.020;2022-11-24T00:04:10;9.20;99.90
31639;DHT22;18248;51.522;7.020;2022-11-24T00:07:09;9.10;99.90
31639;DHT22;18248;51.522;7.020;2022-11-24T00:10:07;9.10;99.90
31639;DHT22;18248;51.522;7.020;2022-11-24T00:13:06;9.10;99.90
31639;DHT22;18248;51.522;7.020;2022-11-24T00:16:16;9.10;99.90
31639;DHT22;18248;51.522;7.020;2022-11-24T00:19:15;9.10;99.90
31639;DHT22;18248;51.522;7.020;2022-11-24T00:22:13;9.00;99.90
31639;DHT22;18248;51.522;7.020;2022-11-24T00:25:12;9.10;99.90
31639;DHT22;18248;51.522;7.020;2022-11-24T00:28:10;9.00;99.90
31639;DHT22;18248;51.522;7.020;2022-11-24T00:31:20;9.00;99.90
31639;DHT22;18248;51.522;7.020;2022-11-24T00:34:19;9.00;99.90
31639;DHT22;18248;51.522;7.020;2022-11-24T00:37:17;9.00;99.90
31639;DHT22;18248;51.522;7.020;2022-11-24T00:40:16;9.00;99.90
31639;DHT22;18248;51.522;7.020;2022-11-24T00:43:14;9.00;99.90
31639;DHT22;18248;51.522;7.020;2022-11-24T00:46:13;8.90;99.90
31639;DHT22;18248;51.522;7.020;2022-11-24T00:49:11;8.90;99.90
31639;DHT22;18248;51.522;7.020;2022-11-24T00:52:10;9.00;99.90
31639;DHT22;18248;51.522;7.020;2022-11-24T00:55:08;9.00;99.90
31639;DHT22;18248;51.522;7.020;2022-11-24T00:58:07;8.90;99.90
31639;DHT22;18248;51.522;7.020;2022-11-24T01:01:20;9.00;99.90
31639;DHT22;18248;51.522;7.020;2022-11-24T01:04:19;9.00;99.90
31639;DHT22;18248;51.522;7.020;2022-11-24T01:07:20;9.00;99.90
31639;DHT22;18248;51.522;7.020;2022-11-24T01:10:19;9.00;99.90
31639;DHT22;18248;51.522;7.020;2022-11-24T01:13:17;9.00;99.90
31639;DHT22;18248;51.522;7.020;2022-11-24T01:19:23;8.90;99.90
31639;DHT22;18248;51.522;7.020;2022-11-24T01:22:22;8.90;99.90
31639;DHT22;18248;51.522;7.020;2022-11-24T01:25:22;8.90;99.90
31639;DHT22;18248;51.522;7.020;2022-11-24T01:28:21;8.90;99.90
31639;DHT22;18248;51.522;7.020;2022-11-24T01:31:19;8.90;99.90
31639;DHT22;18248;51.522;7.020;2022-11-24T01:34:18;8.90;99.90
31639;DHT22;18248;51.522;7.020;2022-11-24T01:37:16;8.90;99.90
31639;DHT22;18248;51.522;7.020;2022-11-24T01:40:18;8.90;99.90
31639;DHT22;18248;51.522;7.020;2022-11-24T01:43:19;8.90;99.90
31639;DHT22;18248;51.522;7.020;2022-11-24T01:49:32;8.80;99.90
31639;DHT22;18248;51.522;7.020;2022-11-24T01:52:39;8.80;99.90
31639;DHT22;18248;51.522;7.020;2022-11-24T01:55:39;8.90;99.90
31639;DHT22;18248;51.522;7.020;2022-11-24T01:58:39;8.90;99.90
31639;DHT22;18248;51.522;7.020;2022-11-24T02:01:40;8.90;99.90
31639;DHT22;18248;51.522;7.020;2022-11-24T02:04:40;9.00;99.90
31639;DHT22;18248;51.522;7.020;2022-11-24T02:07:39;9.00;99.90
31639;DHT22;18248;51.522;7.020;2022-11-24T02:10:38;9.00;99.90
31639;DHT22;18248;51.522;7.020;2022-11-24T02:13:38;9.00;99.90
31639;DHT22;18248;51.522;7.020;2022-11-24T02:16:38;9.10;99.90
31639;DHT22;18248;51.522;7.020;2022-11-24T02:20:08;9.10;99.90
31639;DHT22;18248;51.522;7.020;2022-11-24T02:23:11;9.10;99.90
31639;DHT22;18248;51.522;7.020;2022-11-24T02:26:40;9.10;99.90
31639;DHT22;18248;51.522;7.020;2022-11-24T02:29:40;9.10;99.90
31639;DHT22;18248;51.522;7.020;2022-11-24T02:32:42;9.10;99.90
31639;DHT22;18248;51.522;7.020;2022-11-24T02:35:41;9.10;99.90
31639;DHT22;18248;51.522;7.020;2022-11-24T02:38:39;9.20;99.90
31639;DHT22;18248;51.522;7.020;2022-11-24T02:41:42;9.10;99.90
31639;DHT22;18248;51.522;7.020;2022-11-24T02:44:46;9.10;99.90
31639;DHT22;18248;51.522;7.020;2022-11-24T02:47:46;9.10;99.90
31639;DHT22;18248;51.522;7.020;2022-11-24T02:50:44;9.10;99.90
31639;DHT22;18248;51.522;7.020;2022-11-24T02:53:43;9.10;99.90
31639;DHT22;18248;51.522;7.020;2022-11-24T02:56:41;9.10;99.90
31639;DHT22;18248;51.522;7.020;2022-11-24T02:59:40;9.10;99.90
31639;DHT22;18248;51.522;7.020;2022-11-24T03:02:40;9.10;99.90
31639;DHT22;18248;51.522;7.020;2022-11-24T03:05:40;9.10;99.90
31639;DHT22;18248;51.522;7.020;2022-11-24T03:08:38;9.10;99.90
31639;DHT22;18248;51.522;7.020;2022-11-24T03:11:37;9.10;99.90
31639;DHT22;18248;51.522;7.020;2022-11-24T03:14:36;9.20;99.90
31639;DHT22;18248;51.522;7.020;2022-11-24T03:17:37;9.20;99.90
31639;DHT22;18248;51.522;7.020;2022-11-24T03:20:36;9.20;99.90
31639;DHT22;18248;51.522;7.020;2022-11-24T03:23:34;9.30;99.90
31639;DHT22;18248;51.522;7.020;2022-11-24T03:26:34;9.30;99.90
31639;DHT22;18248;51.522;7.020;2022-11-24T03:29:32;9.30;99.90
31639;DHT22;18248;51.522;7.020;2022-11-24T03:32:31;9.30;99.90
31639;DHT22;18248;51.522;7.020;2022-11-24T03:35:29;9.30;99.90
31639;DHT22;18248;51.522;7.020;2022-11-24T03:38:28;9.30;99.90
31639;DHT22;18248;51.522;7.020;2022-11-24T03:41:29;9.30;99.90
31639;DHT22;18248;51.522;7.020;2022-11-24T03:44:28;9.30;99.90
31639;DHT22;18248;51.522;7.020;2022-11-24T03:47:28;9.30;99.90
31639;DHT22;18248;51.522;7.020;2022-11-24T03:50:26;9.30;99.90
31639;DHT22;18248;51.522;7.020;2022-11-24T03:53:26;9.20;99.90
31639;DHT22;18248;51.522;7.020;2022-11-24T03:56:25;9.20;99.90
31639;DHT22;18248;51.522;7.020;2022-11-24T03:59:24;9.20;99.90
31639;DHT22;18248;51.522;7.020;2022-11-24T04:02:22;9.20;99.90
31639;DHT22;18248;51.522;7.020;2022-11-24T04:05:21;9.20;99.90
31639;DHT22;18248;51.522;7.020;2022-11-24T04:08:20;9.20;99.90
31639;DHT22;18248;51.522;7.020;2022-11-24T04:11:18;9.30;99.90
31639;DHT22;18248;51.522;7.020;2022-11-24T04:14:35;9.30;99.90
31639;DHT22;18248;51.522;7.020;2022-11-24T04:17:34;9.30;99.90
31639;DHT22;18248;51.522;7.020;2022-11-24T04:20:33;9.40;99.90
31639;DHT22;18248;51.522;7.020;2022-11-24T04:23:31;9.40;99.90
31639;DHT22;18248;51.522;7.020;2022-11-24T04:26:30;9.50;99.90
31639;DHT22;18248;51.522;7.020;2022-11-24T04:29:29;9.50;99.90
31639;DHT22;18248;51.522;7.020;2022-11-24T04:32:28;9.50;99.90
31639;DHT22;18248;51.522;7.020;2022-11-24T04:35:27;9.50;99.90
31639;DHT22;18248;51.522;7.020;2022-11-24T04:38:25;9.50;99.90
31639;DHT22;18248;51.522;7.020;2022-11-24T04:41:24;9.60;99.90
31639;DHT22;18248;51.522;7.020;2022-11-24T04:44:22;9.50;99.90
31639;DHT22;18248;51.522;7.020;2022-11-24T04:47:23;9.60;99.90
31639;DHT22;18248;51.522;7.020;2022-11-24T04:50:21;9.60;99.90
31639;DHT22;18248;51.522;7.020;2022-11-24T04:53:20;9.60;99.90
31639;DHT22;18248;51.522;7.020;2022-11-24T04:56:19;9.60;99.90
31639;DHT22;18248;51.522;7.020;2022-11-24T04:59:18;9.60;99.90
31639;DHT22;18248;51.522;7.020;2022-11-24T05:02:17;9.60;99.90
31639;DHT22;18248;51.522;7.020;2022-11-24T05:05:16;9.60;99.90
31639;DHT22;18248;51.522;7.020;2022-11-24T05:08:14;9.60;99.90
31639;DHT22;18248;51.522;7.020;2022-11-24T05:11:13;9.60;99.90
31639;DHT22;18248;51.522;7.020;2022-11-24T05:14:12;9.70;99.90
31639;DHT22;18248;51.522;7.020;2022-11-24T05:17:10;9.70;99.90
31639;DHT22;18248;51.522;7.020;2022-11-24T05:20:09;9.70;99.90
31639;DHT22;18248;51.522;7.020;2022-11-24T05:23:08;9.70;99.90
31639;DHT22;18248;51.522;7.020;2022-11-24T05:26:06;9.70;99.90
31639;DHT22;18248;51.522;7.020;2022-11-24T05:29:05;9.70;99.90
31639;DHT22;18248;51.522;7.020;2022-11-24T05:32:04;9.80;99.90
31639;DHT22;18248;51.522;7.020;2022-11-24T05:35:03;9.80;99.90
31639;DHT22;18248;51.522;7.020;2022-11-24T05:38:03;9.80;99.90
31639;DHT22;18248;51.522;7.020;2022-11-24T05:41:03;9.80;99.90
31639;DHT22;18248;51.522;7.020;2022-11-24T05:44:02;9.80;99.90
31639;DHT22;18248;51.522;7.020;2022-11-24T05:47:01;9.80;99.90
31639;DHT22;18248;51.522;7.020;2022-11-24T05:49:59;9.70;99.90
31639;DHT22;18248;51.522;7.020;2022-11-24T05:53:02;9.80;99.90
31639;DHT22;18248;51.522;7.020;2022-11-24T05:56:04;9.70;99.90
31639;DHT22;18248;51.522;7.020;2022-11-24T05:59:03;9.80;99.90
31639;DHT22;18248;51.522;7.020;2022-11-24T06:02:01;9.80;99.90
31639;DHT22;18248;51.522;7.020;2022-11-24T06:05:00;9.80;99.90
31639;DHT22;18248;51.522;7.020;2022-11-24T06:07:59;9.80;99.90
31639;DHT22;18248;51.522;7.020;2022-11-24T06:11:01;9.80;99.90
31639;DHT22;18248;51.522;7.020;2022-11-24T06:14:14;9.90;99.90
31639;DHT22;18248;51.522;7.020;2022-11-24T06:17:13;9.80;99.90
31639;DHT22;18248;51.522;7.020;2022-11-24T06:20:11;9.80;99.90
31639;DHT22;18248;51.522;7.020;2022-11-24T06:23:10;9.80;99.90
31639;DHT22;18248;51.522;7.020;2022-11-24T06:26:08;9.80;99.90
31639;DHT22;18248;51.522;7.020;2022-11-24T06:29:07;9.80;99.90
31639;DHT22;18248;51.522;7.020;2022-11-24T06:32:05;9.80;99.90
31639;DHT22;18248;51.522;7.020;2022-11-24T06:35:04;9.80;99.90
31639;DHT22;18248;51.522;7.020;2022-11-24T06:38:03;9.70;99.90
31639;DHT22;18248;51.522;7.020;2022-11-24T06:41:10;9.70;99.90
31639;DHT22;18248;51.522;7.020;2022-11-24T06:44:09;9.70;99.90
31639;DHT22;18248;51.522;7.020;2022-11-24T06:47:07;9.70;99.90
31639;DHT22;18248;51.522;7.020;2022-11-24T06:50:06;9.70;99.90
31639;DHT22;18248;51.522;7.020;2022-11-24T06:53:06;9.70;99.90
31639;DHT22;18248;51.522;7.020;2022-11-24T06:56:09;9.70;99.90
31639;DHT22;18248;51.522;7.020;2022-11-24T06:59:19;9.60;99.90
31639;DHT22;18248;51.522;7.020;2022-11-24T07:02:17;9.60;99.90
31639;DHT22;18248;51.522;7.020;2022-11-24T07:05:16;9.60;99.90
31639;DHT22;18248;51.522;7.020;2022-11-24T07:08:14;9.60;99.90
31639;DHT22;18248;51.522;7.020;2022-11-24T07:11:19;9.60;99.90
31639;DHT22;18248;51.522;7.020;2022-11-24T07:14:19;9.60;99.90
31639;DHT22;18248;51.522;7.020;2022-11-24T07:17:18;9.60;99.90
31639;DHT22;18248;51.522;7.020;2022-11-24T07:20:16;9.60;99.90
31639;DHT22;18248;51.522;7.020;2022-11-24T07:23:15;9.60;99.90
31639;DHT22;18248;51.522;7.020;2022-11-24T07:26:13;9.70;99.90
31639;DHT22;18248;51.522;7.020;2022-11-24T07:29:12;9.70;99.90
31639;DHT22;18248;51.522;7.020;2022-11-24T07:32:11;9.70;99.90
31639;DHT22;18248;51.522;7.020;2022-11-24T07:35:11;9.70;99.90
31639;DHT22;18248;51.522;7.020;2022-11-24T07:38:09;9.70;99.90
31639;DHT22;18248;51.522;7.020;2022-11-24T07:41:10;9.80;99.90
31639;DHT22;18248;51.522;7.020;2022-11-24T07:44:09;9.80;99.90
31639;DHT22;18248;51.522;7.020;2022-11-24T07:47:07;9.80;99.90
31639;DHT22;18248;51.522;7.020;2022-11-24T07:50:08;9.80;99.90
31639;DHT22;18248;51.522;7.020;2022-11-24T07:53:07;9.80;99.90
31639;DHT22;18248;51.522;7.020;2022-11-24T07:56:06;9.80;99.90
31639;DHT22;18248;51.522;7.020;2022-11-24T07:59:05;9.90;99.90
31639;DHT22;18248;51.522;7.020;2022-11-24T08:02:03;9.80;99.90
31639;DHT22;18248;51.522;7.020;2022-11-24T08:05:02;9.80;99.90
31639;DHT22;18248;51.522;7.020;2022-11-24T08:08:00;9.80;99.90
31639;DHT22;18248;51.522;7.020;2022-11-24T08:11:25;9.80;99.90
31639;DHT22;18248;51.522;7.020;2022-11-24T08:14:24;9.80;99.90
31639;DHT22;18248;51.522;7.020;2022-11-24T08:17:24;9.80;99.90
31639;DHT22;18248;51.522;7.020;2022-11-24T08:20:22;9.80;99.90
31639;DHT22;18248;51.522;7.020;2022-11-24T08:23:22;9.90;99.90
31639;DHT22;18248;51.522;7.020;2022-11-24T08:26:21;9.80;99.90
31639;DHT22;18248;51.522;7.020;2022-11-24T08:29:21;9.90;99.90
31639;DHT22;18248;51.522;7.020;2022-11-24T08:32:20;9.90;99.90
31639;DHT22;18248;51.522;7.020;2022-11-24T08:35:21;9.90;99.90
31639;DHT22;18248;51.522;7.020;2022-11-24T08:38:19;10.00;99.90
31639;DHT22;18248;51.522;7.020;2022-11-24T08:41:18;10.00;99.90
31639;DHT22;18248;51.522;7.020;2022-11-24T08:44:16;10.00;99.90
31639;DHT22;18248;51.522;7.020;2022-11-24T08:47:15;10.00;99.90
31639;DHT22;18248;51.522;7.020;2022-11-24T08:50:14;10.00;99.90
31639;DHT22;18248;51.522;7.020;2022-11-24T08:53:12;10.00;99.90
31639;DHT22;18248;51.522;7.020;2022-11-24T08:56:11;10.10;99.90
31639;DHT22;18248;51.522;7.020;2022-11-24T08:59:12;10.00;99.90
31639;DHT22;18248;51.522;7.020;2022-11-24T09:02:12;10.10;99.90
31639;DHT22;18248;51.522;7.020;2022-11-24T09:05:11;10.10;99.90
31639;DHT22;18248;51.522;7.020;2022-11-24T09:08:10;10.10;99.90
31639;DHT22;18248;51.522;7.020;2022-11-24T09:11:11;10.20;99.90
31639;DHT22;18248;51.522;7.020;2022-11-24T09:14:10;10.30;99.90
31639;DHT22;18248;51.522;7.020;2022-11-24T09:17:09;10.30;99.90
31639;DHT22;18248;51.522;7.020;2022-11-24T09:20:08;10.30;99.90
31639;DHT22;18248;51.522;7.020;2022-11-24T09:23:07;10.30;99.90
31639;DHT22;18248;51.522;7.020;2022-11-24T09:26:07;10.30;99.90
31639;DHT22;18248;51.522;7.020;2022-11-24T09:29:06;10.30;99.90
31639;DHT22;18248;51.522;7.020;2022-11-24T09:32:05;10.30;99.90
31639;DHT22;18248;51.522;7.020;2022-11-24T09:35:04;10.40;99.90
31639;DHT22;18248;51.522;7.020;2022-11-24T09:38:02;10.40;99.90
31639;DHT22;18248;51.522;7.020;2022-11-24T09:48:20;10.60;99.90
31639;DHT22;18248;51.522;7.020;2022-11-24T09:51:26;10.60;99.90
31639;DHT22;18248;51.522;7.020;2022-11-24T09:54:28;10.60;99.90
31639;DHT22;18248;51.522;7.020;2022-11-24T09:57:28;10.60;99.90
31639;DHT22;18248;51.522;7.020;2022-11-24T10:00:28;10.60;99.90
31639;DHT22;18248;51.522;7.020;2022-11-24T10:03:34;10.60;99.90
31639;DHT22;18248;51.522;7.020;2022-11-24T10:06:49;10.60;99.90
31639;DHT22;18248;51.522;7.020;2022-11-24T10:13:21;10.60;99.90
31639;DHT22;18248;51.522;7.020;2022-11-24T10:26:41;10.70;99.90
31639;DHT22;18248;51.522;7.020;2022-11-24T10:29:48;10.70;99.90
31639;DHT22;18248;51.522;7.020;2022-11-24T10:32:54;10.80;99.90
31639;DHT22;18248;51.522;7.020;2022-11-24T10:36:02;10.80;99.90
31639;DHT22;18248;51.522;7.020;2022-11-24T10:39:13;10.90;99.90
31639;DHT22;18248;51.522;7.020;2022-11-24T10:42:32;10.90;99.90
31639;DHT22;18248;51.522;7.020;2022-11-24T10:45:34;11.00;99.90
31639;DHT22;18248;51.522;7.020;2022-11-24T10:49:03;11.10;99.90
31639;DHT22;18248;51.522;7.020;2022-11-24T10:52:13;11.20;99.90
31639;DHT22;18248;51.522;7.020;2022-11-24T10:55:12;11.40;99.90
31639;DHT22;18248;51.522;7.020;2022-11-24T10:58:15;11.50;99.90
31639;DHT22;18248;51.522;7.020;2022-11-24T11:04:38;11.50;99.90
31639;DHT22;18248;51.522;7.020;2022-11-24T11:07:37;11.60;99.90
31639;DHT22;18248;51.522;7.020;2022-11-24T11:10:35;11.60;99.90
31639;DHT22;18248;51.522;7.020;2022-11-24T11:13:34;11.60;99.90
31639;DHT22;18248;51.522;7.020;2022-11-24T11:16:41;11.70;99.90
31639;DHT22;18248;51.522;7.020;2022-11-24T11:19:42;11.70;99.90
31639;DHT22;18248;51.522;7.020;2022-11-24T11:22:42;11.70;99.90
31639;DHT22;18248;51.522;7.020;2022-11-24T11:25:42;11.70;99.90
31639;DHT22;18248;51.522;7.020;2022-11-24T11:28:41;11.70;99.90
31639;DHT22;18248;51.522;7.020;2022-11-24T11:31:39;11.60;99.90
31639;DHT22;18248;51.522;7.020;2022-11-24T11:34:38;11.60;99.90
31639;DHT22;18248;51.522;7.020;2022-11-24T11:37:37;11.50;99.90
31639;DHT22;18248;51.522;7.020;2022-11-24T11:40:36;11.50;99.90
31639;DHT22;18248;51.522;7.020;2022-11-24T11:43:37;11.60;99.90
31639;DHT22;18248;51.522;7.020;2022-11-24T11:46:38;11.60;99.90
31639;DHT22;18248;51.522;7.020;2022-11-24T11:49:37;11.60;99.90
31639;DHT22;18248;51.522;7.020;2022-11-24T11:56:24;11.80;99.90
31639;DHT22;18248;51.522;7.020;2022-11-24T12:06:20;12.00;99.90
31639;DHT22;18248;51.522;7.020;2022-11-24T12:09:42;12.10;99.90
31639;DHT22;18248;51.522;7.020;2022-11-24T12:12:57;12.10;99.90
31639;DHT22;18248;51.522;7.020;2022-11-24T12:16:10;12.00;99.90
31639;DHT22;18248;51.522;7.020;2022-11-24T12:22:42;12.20;99.90
31639;DHT22;18248;51.522;7.020;2022-11-24T12:25:50;12.40;99.90
31639;DHT22;18248;51.522;7.020;2022-11-24T12:35:51;13.00;99.90
31639;DHT22;18248;51.522;7.020;2022-11-24T12:42:34;13.40;99.90
31639;DHT22;18248;51.522;7.020;2022-11-24T12:45:42;13.40;99.90
31639;DHT22;18248;51.522;7.020;2022-11-24T12:52:24;13.40;99.90
31639;DHT22;18248;51.522;7.020;2022-11-24T12:55:25;13.50;99.90
31639;DHT22;18248;51.522;7.020;2022-11-24T12:58:30;13.50;99.90
31639;DHT22;18248;51.522;7.020;2022-11-24T13:01:38;13.40;99.90
31639;DHT22;18248;51.522;7.020;2022-11-24T13:04:50;13.40;99.90
31639;DHT22;18248;51.522;7.020;2022-11-24T13:07:57;13.50;99.90
31639;DHT22;18248;51.522;7.020;2022-11-24T13:14:21;13.40;99.90
31639;DHT22;18248;51.522;7.020;2022-11-24T13:17:33;13.40;99.90
31639;DHT22;18248;51.522;7.020;2022-11-24T13:20:38;13.40;99.90
31639;DHT22;18248;51.522;7.020;2022-11-24T13:23:37;13.40;99.90
31639;DHT22;18248;51.522;7.020;2022-11-24T13:26:43;13.50;99.90
31639;DHT22;18248;51.522;7.020;2022-11-24T13:29:48;13.50;99.90
31639;DHT22;18248;51.522;7.020;2022-11-24T13:33:25;13.40;99.90
31639;DHT22;18248;51.522;7.020;2022-11-24T13:39:21;13.30;99.90
31639;DHT22;18248;51.522;7.020;2022-11-24T13:42:29;13.40;99.90
31639;DHT22;18248;51.522;7.020;2022-11-24T13:51:44;13.50;99.90
31639;DHT22;18248;51.522;7.020;2022-11-24T13:54:43;13.40;99.90
31639;DHT22;18248;51.522;7.020;2022-11-24T13:58:28;13.40;99.90
31639;DHT22;18248;51.522;7.020;2022-11-24T14:01:52;13.40;99.90
31639;DHT22;18248;51.522;7.020;2022-11-24T14:04:31;13.40;99.90
31639;DHT22;18248;51.522;7.020;2022-11-24T14:07:33;13.30;99.90
31639;DHT22;18248;51.522;7.020;2022-11-24T14:10:35;13.20;99.90
31639;DHT22;18248;51.522;7.020;2022-11-24T14:13:34;13.20;99.90
31639;DHT22;18248;51.522;7.020;2022-11-24T14:16:33;13.10;99.90
31639;DHT22;18248;51.522;7.020;2022-11-24T14:19:31;13.10;99.90
31639;DHT22;18248;51.522;7.020;2022-11-24T14:22:31;13.00;99.90
31639;DHT22;18248;51.522;7.020;2022-11-24T14:25:31;12.90;99.90
31639;DHT22;18248;51.522;7.020;2022-11-24T14:28:29;12.90;99.90
31639;DHT22;18248;51.522;7.020;2022-11-24T14:31:28;13.00;99.90
31639;DHT22;18248;51.522;7.020;2022-11-24T14:34:28;13.10;99.90
31639;DHT22;18248;51.522;7.020;2022-11-24T14:37:27;13.00;99.90
31639;DHT22;18248;51.522;7.020;2022-11-24T14:40:48;12.90;99.90
31639;DHT22;18248;51.522;7.020;2022-11-24T14:43:47;12.70;99.90
31639;DHT22;18248;51.522;7.020;2022-11-24T14:46:47;12.60;99.90
31639;DHT22;18248;51.522;7.020;2022-11-24T14:49:46;12.60;99.90
31639;DHT22;18248;51.522;7.020;2022-11-24T14:52:52;12.50;99.90
31639;DHT22;18248;51.522;7.020;2022-11-24T14:59:24;12.30;99.90
31639;DHT22;18248;51.522;7.020;2022-11-24T15:02:45;12.20;99.90
31639;DHT22;18248;51.522;7.020;2022-11-24T15:05:55;12.10;99.90
31639;DHT22;18248;51.522;7.020;2022-11-24T15:08:55;12.10;99.90
31639;DHT22;18248;51.522;7.020;2022-11-24T15:11:54;12.00;99.90
31639;DHT22;18248;51.522;7.020;2022-11-24T15:15:17;11.90;99.90
31639;DHT22;18248;51.522;7.020;2022-11-24T15:21:41;11.70;99.90
31639;DHT22;18248;51.522;7.020;2022-11-24T15:24:52;11.70;99.90
31639;DHT22;18248;51.522;7.020;2022-11-24T15:27:51;11.60;99.90
31639;DHT22;18248;51.522;7.020;2022-11-24T15:30:53;11.50;99.90
31639;DHT22;18248;51.522;7.020;2022-11-24T15:33:53;11.50;99.90
31639;DHT22;18248;51.522;7.020;2022-11-24T15:36:52;11.40;99.90
31639;DHT22;18248;51.522;7.020;2022-11-24T15:39:50;11.30;99.90
31639;DHT22;18248;51.522;7.020;2022-11-24T15:42:54;11.30;99.90
31639;DHT22;18248;51.522;7.020;2022-11-24T15:45:53;11.20;99.90
31639;DHT22;18248;51.522;7.020;2022-11-24T15:48:52;11.10;99.90
31639;DHT22;18248;51.522;7.020;2022-11-24T15:51:51;11.00;99.90
31639;DHT22;18248;51.522;7.020;2022-11-24T15:54:54;10.90;99.90
31639;DHT22;18248;51.522;7.020;2022-11-24T15:57:53;10.90;99.90
31639;DHT22;18248;51.522;7.020;2022-11-24T16:00:52;10.80;99.90
31639;DHT22;18248;51.522;7.020;2022-11-24T16:03:50;10.70;99.90
31639;DHT22;18248;51.522;7.020;2022-11-24T16:06:49;10.70;99.90
31639;DHT22;18248;51.522;7.020;2022-11-24T16:09:47;10.60;99.90
31639;DHT22;18248;51.522;7.020;2022-11-24T16:12:46;10.60;99.90
31639;DHT22;18248;51.522;7.020;2022-11-24T16:15:46;10.50;99.90
31639;DHT22;18248;51.522;7.020;2022-11-24T16:18:46;10.50;99.90
31639;DHT22;18248;51.522;7.020;2022-11-24T16:21:47;10.30;99.90
31639;DHT22;18248;51.522;7.020;2022-11-24T16:24:47;10.30;99.90
31639;DHT22;18248;51.522;7.020;2022-11-24T16:27:47;10.20;99.90
31639;DHT22;18248;51.522;7.020;2022-11-24T16:30:49;10.20;99.90
31639;DHT22;18248;51.522;7.020;2022-11-24T16:33:47;10.00;99.90
31639;DHT22;18248;51.522;7.020;2022-11-24T16:36:46;10.00;99.90
31639;DHT22;18248;51.522;7.020;2022-11-24T16:39:45;9.90;99.90
31639;DHT22;18248;51.522;7.020;2022-11-24T16:42:43;9.90;99.90
31639;DHT22;18248;51.522;7.020;2022-11-24T16:45:42;9.80;99.90
31639;DHT22;18248;51.522;7.020;2022-11-24T16:48:40;9.70;99.90
31639;DHT22;18248;51.522;7.020;2022-11-24T16:51:40;9.70;99.90
31639;DHT22;18248;51.522;7.020;2022-11-24T16:54:41;9.60;99.90
31639;DHT22;18248;51.522;7.020;2022-11-24T16:57:39;9.60;99.90
31639;DHT22;18248;51.522;7.020;2022-11-24T17:00:39;9.60;99.90
31639;DHT22;18248;51.522;7.020;2022-11-24T17:03:38;9.50;99.90
31639;DHT22;18248;51.522;7.020;2022-11-24T17:06:38;9.50;99.90
31639;DHT22;18248;51.522;7.020;2022-11-24T17:09:36;9.50;99.90
31639;DHT22;18248;51.522;7.020;2022-11-24T17:12:35;9.50;99.90
31639;DHT22;18248;51.522;7.020;2022-11-24T17:15:36;9.50;99.90
31639;DHT22;18248;51.522;7.020;2022-11-24T17:18:35;9.50;99.90
31639;DHT22;18248;51.522;7.020;2022-11-24T17:21:33;9.50;99.90
31639;DHT22;18248;51.522;7.020;2022-11-24T17:24:32;9.50;99.90
31639;DHT22;18248;51.522;7.020;2022-11-24T17:27:31;9.50;99.90
31639;DHT22;18248;51.522;7.020;2022-11-24T17:30:29;9.50;99.90
31639;DHT22;18248;51.522;7.020;2022-11-24T17:33:28;9.60;99.90
31639;DHT22;18248;51.522;7.020;2022-11-24T17:36:27;9.70;99.90
31639;DHT22;18248;51.522;7.020;2022-11-24T17:39:26;9.70;99.90
31639;DHT22;18248;51.522;7.020;2022-11-24T17:42:25;9.80;99.90
31639;DHT22;18248;51.522;7.020;2022-11-24T17:45:23;9.80;99.90
31639;DHT22;18248;51.522;7.020;2022-11-24T17:48:22;9.80;99.90
31639;DHT22;18248;51.522;7.020;2022-11-24T17:51:23;9.90;99.90
31639;DHT22;18248;51.522;7.020;2022-11-24T17:54:24;9.90;99.90
31639;DHT22;18248;51.522;7.020;2022-11-24T17:57:22;10.00;99.90
31639;DHT22;18248;51.522;7.020;2022-11-24T18:00:21;10.00;99.90
31639;DHT22;18248;51.522;7.020;2022-11-24T18:03:19;10.00;99.90
31639;DHT22;18248;51.522;7.020;2022-11-24T18:06:18;10.00;99.90
31639;DHT22;18248;51.522;7.020;2022-11-24T18:09:17;10.00;99.90
31639;DHT22;18248;51.522;7.020;2022-11-24T18:12:15;10.00;99.90
31639;DHT22;18248;51.522;7.020;2022-11-24T18:15:14;10.00;99.90
31639;DHT22;18248;51.522;7.020;2022-11-24T18:18:13;10.00;99.90
31639;DHT22;18248;51.522;7.020;2022-11-24T18:21:13;10.00;99.90
31639;DHT22;18248;51.522;7.020;2022-11-24T18:24:12;10.00;99.90
31639;DHT22;18248;51.522;7.020;2022-11-24T18:27:11;10.00;99.90
31639;DHT22;18248;51.522;7.020;2022-11-24T18:30:09;9.90;99.90
31639;DHT22;18248;51.522;7.020;2022-11-24T18:33:08;9.90;99.90
31639;DHT22;18248;51.522;7.020;2022-11-24T18:36:09;9.80;99.90
31639;DHT22;18248;51.522;7.020;2022-11-24T18:39:09;9.90;99.90
31639;DHT22;18248;51.522;7.020;2022-11-24T18:42:08;9.90;99.90
31639;DHT22;18248;51.522;7.020;2022-11-24T18:45:07;9.80;99.90
31639;DHT22;18248;51.522;7.020;2022-11-24T18:48:06;9.80;99.90
31639;DHT22;18248;51.522;7.020;2022-11-24T18:51:04;9.80;99.90
31639;DHT22;18248;51.522;7.020;2022-11-24T18:54:04;9.80;99.90
31639;DHT22;18248;51.522;7.020;2022-11-24T18:57:03;9.80;99.90
31639;DHT22;18248;51.522;7.020;2022-11-24T19:00:02;9.70;99.90
31639;DHT22;18248;51.522;7.020;2022-11-24T19:03:00;9.70;99.90
31639;DHT22;18248;51.522;7.020;2022-11-24T19:06:03;9.70;99.90
31639;DHT22;18248;51.522;7.020;2022-11-24T19:09:08;9.70;99.90
31639;DHT22;18248;51.522;7.020;2022-11-24T19:12:08;9.70;99.90
31639;DHT22;18248;51.522;7.020;2022-11-24T19:15:07;9.60;99.90
31639;DHT22;18248;51.522;7.020;2022-11-24T19:18:06;9.60;99.90
31639;DHT22;18248;51.522;7.020;2022-11-24T19:21:05;9.60;99.90
31639;DHT22;18248;51.522;7.020;2022-11-24T19:24:08;9.50;99.90
31639;DHT22;18248;51.522;7.020;2022-11-24T19:27:07;9.50;99.90
31639;DHT22;18248;51.522;7.020;2022-11-24T19:30:08;9.50;99.90
31639;DHT22;18248;51.522;7.020;2022-11-24T19:33:07;9.50;99.90
31639;DHT22;18248;51.522;7.020;2022-11-24T19:36:10;9.40;99.90
31639;DHT22;18248;51.522;7.020;2022-11-24T19:39:13;9.40;99.90
31639;DHT22;18248;51.522;7.020;2022-11-24T19:42:12;9.40;99.90
31639;DHT22;18248;51.522;7.020;2022-11-24T19:45:11;9.40;99.90
31639;DHT22;18248;51.522;7.020;2022-11-24T19:48:11;9.30;99.90
31639;DHT22;18248;51.522;7.020;2022-11-24T19:51:14;9.30;99.90
31639;DHT22;18248;51.522;7.020;2022-11-24T19:54:13;9.30;99.90
31639;DHT22;18248;51.522;7.020;2022-11-24T19:57:12;9.30;99.90
31639;DHT22;18248;51.522;7.020;2022-11-24T20:00:11;9.30;99.90
31639;DHT22;18248;51.522;7.020;2022-11-24T20:03:10;9.30;99.90
31639;DHT22;18248;51.522;7.020;2022-11-24T20:06:12;9.30;99.90
31639;DHT22;18248;51.522;7.020;2022-11-24T20:09:14;9.30;99.90
31639;DHT22;18248;51.522;7.020;2022-11-24T20:12:12;9.30;99.90
31639;DHT22;18248;51.522;7.020;2022-11-24T20:15:12;9.30;99.90
31639;DHT22;18248;51.522;7.020;2022-11-24T20:18:11;9.30;99.90
31639;DHT22;18248;51.522;7.020;2022-11-24T20:21:13;9.30;99.90
31639;DHT22;18248;51.522;7.020;2022-11-24T20:24:22;9.30;99.90
31639;DHT22;18248;51.522;7.020;2022-11-24T20:27:21;9.30;99.90
31639;DHT22;18248;51.522;7.020;2022-11-24T20:30:20;9.20;99.90
31639;DHT22;18248;51.522;7.020;2022-11-24T20:33:19;9.20;99.90